sensor_id;sensor_type;location;lat;lon;timestamp;P1;durP1;ratioP1;P2;durP2;ratioP2
42134;SDS011;28312;43.460;11.810;2022-07-29T00:00:53;2.13;;;1.10;;
42134;SDS011;28312;43.460;11.810;2022-07-29T00:04:58;3.55;;;0.85;;
42134;SDS011;28312;43.460;11.810;2022-07-29T00:09:02;1.60;;;0.85;;
42134;SDS011;28312;43.460;11.810;2022-07-29T00:13:06;1.45;;;0.90;;
42134;SDS011;28312;43.460;11.810;2022-07-29T00:17:09;1.27;;;0.70;;
42134;SDS011;28312;43.460;11.810;2022-07-29T00:21:21;1.20;;;0.80;;
42134;SDS011;28312;43.460;11.810;2022-07-29T00:25:24;1.80;;;1.00;;
42134;SDS011;28312;43.460;11.810;2022-07-29T00:29:29;0.90;;;0.65;;
42134;SDS011;28312;43.460;11.810;2022-07-29T00:33:36;2.30;;;0.90;;
42134;SDS011;28312;43.460;11.810;2022-07-29T00:37:39;1.73;;;0.95;;
42134;SDS011;28312;43.460;11.810;2022-07-29T00:41:43;1.95;;;1.00;;
42134;SDS011;28312;43.460;11.810;2022-07-29T00:45:47;1.40;;;0.93;;
42134;SDS011;28312;43.460;11.810;2022-07-29T00:49:51;1.38;;;0.80;;
42134;SDS011;28312;43.460;11.810;2022-07-29T00:53:55;2.10;;;1.05;;
42134;SDS011;28312;43.460;11.810;2022-07-29T00:57:59;1.40;;;0.80;;
42134;SDS011;28312;43.460;11.810;2022-07-29T01:02:03;1.20;;;0.75;;
42134;SDS011;28312;43.460;11.810;2022-07-29T01:06:07;1.45;;;0.90;;
42134;SDS011;28312;43.460;11.810;2022-07-29T01:10:13;1.52;;;1.00;;
42134;SDS011;28312;43.460;11.810;2022-07-29T01:14:18;1.67;;;0.80;;
42134;SDS011;28312;43.460;11.810;2022-07-29T01:18:32;1.30;;;0.80;;
42134;SDS011;28312;43.460;11.810;2022-07-29T01:22:53;1.35;;;0.73;;
42134;SDS011;28312;43.460;11.810;2022-07-29T01:36:05;0.77;;;0.55;;
42134;SDS011;28312;43.460;11.810;2022-07-29T01:44:31;3.60;;;1.87;;
42134;SDS011;28312;43.460;11.810;2022-07-29T01:48:44;1.52;;;0.82;;
42134;SDS011;28312;43.460;11.810;2022-07-29T01:52:54;1.55;;;0.80;;
42134;SDS011;28312;43.460;11.810;2022-07-29T01:57:01;1.60;;;1.00;;
42134;SDS011;28312;43.460;11.810;2022-07-29T02:01:08;1.83;;;1.10;;
42134;SDS011;28312;43.460;11.810;2022-07-29T02:05:15;1.40;;;0.98;;
42134;SDS011;28312;43.460;11.810;2022-07-29T02:09:20;2.45;;;1.00;;
42134;SDS011;28312;43.460;11.810;2022-07-29T02:13:26;1.15;;;0.73;;
42134;SDS011;28312;43.460;11.810;2022-07-29T02:22:03;2.85;;;0.90;;
42134;SDS011;28312;43.460;11.810;2022-07-29T02:26:09;1.90;;;1.03;;
42134;SDS011;28312;43.460;11.810;2022-07-29T02:30:14;1.60;;;1.00;;
42134;SDS011;28312;43.460;11.810;2022-07-29T02:34:19;0.98;;;0.65;;
42134;SDS011;28312;43.460;11.810;2022-07-29T02:38:24;3.97;;;1.10;;
42134;SDS011;28312;43.460;11.810;2022-07-29T02:42:48;1.60;;;0.90;;
42134;SDS011;28312;43.460;11.810;2022-07-29T02:46:55;1.10;;;0.77;;
42134;SDS011;28312;43.460;11.810;2022-07-29T02:51:08;1.83;;;0.88;;
42134;SDS011;28312;43.460;11.810;2022-07-29T02:55:42;1.85;;;1.02;;
42134;SDS011;28312;43.460;11.810;2022-07-29T02:59:49;1.70;;;1.10;;
42134;SDS011;28312;43.460;11.810;2022-07-29T03:03:55;1.17;;;0.75;;
42134;SDS011;28312;43.460;11.810;2022-07-29T03:08:04;1.50;;;0.77;;
42134;SDS011;28312;43.460;11.810;2022-07-29T03:12:10;1.38;;;0.95;;
42134;SDS011;28312;43.460;11.810;2022-07-29T03:16:15;1.10;;;0.60;;
42134;SDS011;28312;43.460;11.810;2022-07-29T03:20:21;1.33;;;0.90;;
42134;SDS011;28312;43.460;11.810;2022-07-29T03:24:31;1.83;;;1.00;;
42134;SDS011;28312;43.460;11.810;2022-07-29T03:28:36;1.50;;;0.88;;
42134;SDS011;28312;43.460;11.810;2022-07-29T03:32:41;1.83;;;0.90;;
42134;SDS011;28312;43.460;11.810;2022-07-29T03:36:47;1.20;;;0.82;;
42134;SDS011;28312;43.460;11.810;2022-07-29T03:40:54;1.90;;;1.10;;
42134;SDS011;28312;43.460;11.810;2022-07-29T03:45:07;1.30;;;0.73;;
42134;SDS011;28312;43.460;11.810;2022-07-29T03:49:14;1.67;;;0.82;;
42134;SDS011;28312;43.460;11.810;2022-07-29T03:53:19;1.60;;;0.93;;
42134;SDS011;28312;43.460;11.810;2022-07-29T03:57:23;1.17;;;0.63;;
42134;SDS011;28312;43.460;11.810;2022-07-29T04:01:30;1.73;;;0.98;;
42134;SDS011;28312;43.460;11.810;2022-07-29T04:05:36;1.70;;;1.17;;
42134;SDS011;28312;43.460;11.810;2022-07-29T04:09:40;0.93;;;0.50;;
42134;SDS011;28312;43.460;11.810;2022-07-29T04:13:45;1.20;;;0.70;;
42134;SDS011;28312;43.460;11.810;2022-07-29T04:17:49;1.60;;;0.80;;
42134;SDS011;28312;43.460;11.810;2022-07-29T04:21:53;1.75;;;1.08;;
42134;SDS011;28312;43.460;11.810;2022-07-29T04:25:56;1.73;;;0.98;;
42134;SDS011;28312;43.460;11.810;2022-07-29T04:30:01;1.23;;;0.70;;
42134;SDS011;28312;43.460;11.810;2022-07-29T04:34:06;1.52;;;0.90;;
42134;SDS011;28312;43.460;11.810;2022-07-29T04:38:10;1.05;;;0.70;;
42134;SDS011;28312;43.460;11.810;2022-07-29T04:42:18;1.65;;;0.70;;
42134;SDS011;28312;43.460;11.810;2022-07-29T04:46:31;1.23;;;0.70;;
42134;SDS011;28312;43.460;11.810;2022-07-29T04:50:37;1.30;;;0.80;;
42134;SDS011;28312;43.460;11.810;2022-07-29T04:54:42;1.02;;;0.68;;
42134;SDS011;28312;43.460;11.810;2022-07-29T04:58:46;1.42;;;0.77;;
42134;SDS011;28312;43.460;11.810;2022-07-29T05:02:50;1.48;;;0.93;;
42134;SDS011;28312;43.460;11.810;2022-07-29T05:06:55;1.43;;;1.00;;
42134;SDS011;28312;43.460;11.810;2022-07-29T05:10:59;1.10;;;0.60;;
42134;SDS011;28312;43.460;11.810;2022-07-29T05:15:14;1.30;;;0.80;;
42134;SDS011;28312;43.460;11.810;2022-07-29T05:19:19;1.17;;;0.73;;
42134;SDS011;28312;43.460;11.810;2022-07-29T05:23:23;1.23;;;0.70;;
42134;SDS011;28312;43.460;11.810;2022-07-29T05:27:27;1.52;;;0.95;;
42134;SDS011;28312;43.460;11.810;2022-07-29T05:31:30;2.13;;;1.10;;
42134;SDS011;28312;43.460;11.810;2022-07-29T05:35:34;4.70;;;0.98;;
42134;SDS011;28312;43.460;11.810;2022-07-29T05:39:40;2.60;;;0.67;;
42134;SDS011;28312;43.460;11.810;2022-07-29T05:43:51;1.30;;;0.82;;
42134;SDS011;28312;43.460;11.810;2022-07-29T05:47:55;2.83;;;1.02;;
42134;SDS011;28312;43.460;11.810;2022-07-29T05:51:59;1.85;;;1.02;;
42134;SDS011;28312;43.460;11.810;2022-07-29T05:56:03;1.40;;;0.80;;
42134;SDS011;28312;43.460;11.810;2022-07-29T06:00:08;1.50;;;1.00;;
42134;SDS011;28312;43.460;11.810;2022-07-29T06:04:15;1.90;;;1.00;;
42134;SDS011;28312;43.460;11.810;2022-07-29T06:08:19;3.97;;;1.35;;
42134;SDS011;28312;43.460;11.810;2022-07-29T06:12:23;1.83;;;1.15;;
42134;SDS011;28312;43.460;11.810;2022-07-29T06:16:26;1.63;;;1.00;;
42134;SDS011;28312;43.460;11.810;2022-07-29T06:20:31;2.45;;;0.95;;
42134;SDS011;28312;43.460;11.810;2022-07-29T06:24:35;1.67;;;1.08;;
42134;SDS011;28312;43.460;11.810;2022-07-29T06:28:40;1.60;;;1.00;;
42134;SDS011;28312;43.460;11.810;2022-07-29T06:32:46;1.70;;;1.00;;
42134;SDS011;28312;43.460;11.810;2022-07-29T06:36:49;1.45;;;1.00;;
42134;SDS011;28312;43.460;11.810;2022-07-29T06:40:55;2.08;;;1.02;;
42134;SDS011;28312;43.460;11.810;2022-07-29T06:45:05;1.77;;;1.10;;
42134;SDS011;28312;43.460;11.810;2022-07-29T06:49:10;2.30;;;1.20;;
42134;SDS011;28312;43.460;11.810;2022-07-29T06:53:15;1.40;;;0.82;;
42134;SDS011;28312;43.460;11.810;2022-07-29T06:57:19;1.42;;;0.93;;
42134;SDS011;28312;43.460;11.810;2022-07-29T07:01:23;2.00;;;1.10;;
42134;SDS011;28312;43.460;11.810;2022-07-29T07:05:28;1.88;;;1.13;;
42134;SDS011;28312;43.460;11.810;2022-07-29T07:09:32;1.52;;;1.02;;
42134;SDS011;28312;43.460;11.810;2022-07-29T07:13:42;1.45;;;1.05;;
42134;SDS011;28312;43.460;11.810;2022-07-29T07:17:46;2.55;;;1.60;;
42134;SDS011;28312;43.460;11.810;2022-07-29T07:21:52;1.58;;;0.98;;
42134;SDS011;28312;43.460;11.810;2022-07-29T07:25:57;2.42;;;1.45;;
42134;SDS011;28312;43.460;11.810;2022-07-29T07:30:02;1.65;;;1.05;;
42134;SDS011;28312;43.460;11.810;2022-07-29T07:34:09;3.28;;;1.40;;
42134;SDS011;28312;43.460;11.810;2022-07-29T07:38:13;1.58;;;1.15;;
42134;SDS011;28312;43.460;11.810;2022-07-29T07:42:17;1.77;;;1.25;;
42134;SDS011;28312;43.460;11.810;2022-07-29T07:46:21;3.83;;;2.03;;
42134;SDS011;28312;43.460;11.810;2022-07-29T07:50:24;2.92;;;1.90;;
42134;SDS011;28312;43.460;11.810;2022-07-29T07:54:31;4.18;;;1.88;;
42134;SDS011;28312;43.460;11.810;2022-07-29T07:58:37;2.33;;;1.58;;
42134;SDS011;28312;43.460;11.810;2022-07-29T08:02:42;1.63;;;1.23;;
42134;SDS011;28312;43.460;11.810;2022-07-29T08:06:45;1.92;;;1.30;;
42134;SDS011;28312;43.460;11.810;2022-07-29T08:10:51;2.80;;;1.60;;
42134;SDS011;28312;43.460;11.810;2022-07-29T08:19:00;3.15;;;2.00;;
42134;SDS011;28312;43.460;11.810;2022-07-29T08:23:04;3.10;;;2.33;;
42134;SDS011;28312;43.460;11.810;2022-07-29T08:27:09;2.63;;;1.60;;
42134;SDS011;28312;43.460;11.810;2022-07-29T08:31:34;2.83;;;1.52;;
42134;SDS011;28312;43.460;11.810;2022-07-29T08:35:39;2.55;;;1.55;;
42134;SDS011;28312;43.460;11.810;2022-07-29T08:39:43;3.00;;;2.03;;
42134;SDS011;28312;43.460;11.810;2022-07-29T08:43:47;3.83;;;2.50;;
42134;SDS011;28312;43.460;11.810;2022-07-29T08:47:51;2.35;;;1.52;;
42134;SDS011;28312;43.460;11.810;2022-07-29T08:51:55;2.50;;;1.60;;
42134;SDS011;28312;43.460;11.810;2022-07-29T08:56:01;3.28;;;1.88;;
42134;SDS011;28312;43.460;11.810;2022-07-29T09:00:05;5.65;;;3.00;;
42134;SDS011;28312;43.460;11.810;2022-07-29T09:04:13;3.65;;;2.45;;
42134;SDS011;28312;43.460;11.810;2022-07-29T09:08:18;3.90;;;2.70;;
42134;SDS011;28312;43.460;11.810;2022-07-29T09:12:23;3.78;;;1.90;;
42134;SDS011;28312;43.460;11.810;2022-07-29T09:21:14;2.25;;;1.30;;
42134;SDS011;28312;43.460;11.810;2022-07-29T09:25:39;2.15;;;1.38;;
42134;SDS011;28312;43.460;11.810;2022-07-29T09:29:47;5.65;;;1.33;;
42134;SDS011;28312;43.460;11.810;2022-07-29T09:34:03;2.40;;;1.60;;
42134;SDS011;28312;43.460;11.810;2022-07-29T09:38:11;2.50;;;1.95;;
42134;SDS011;28312;43.460;11.810;2022-07-29T09:42:16;3.78;;;2.05;;
42134;SDS011;28312;43.460;11.810;2022-07-29T09:46:31;2.65;;;1.40;;
42134;SDS011;28312;43.460;11.810;2022-07-29T09:50:38;3.65;;;1.83;;
42134;SDS011;28312;43.460;11.810;2022-07-29T09:54:45;2.85;;;1.60;;
42134;SDS011;28312;43.460;11.810;2022-07-29T09:58:57;2.85;;;1.40;;
42134;SDS011;28312;43.460;11.810;2022-07-29T10:03:09;3.22;;;2.40;;
42134;SDS011;28312;43.460;11.810;2022-07-29T10:11:18;8.48;;;1.20;;
42134;SDS011;28312;43.460;11.810;2022-07-29T10:15:24;2.30;;;1.67;;
42134;SDS011;28312;43.460;11.810;2022-07-29T10:19:29;3.03;;;1.95;;
42134;SDS011;28312;43.460;11.810;2022-07-29T10:23:34;3.45;;;2.33;;
42134;SDS011;28312;43.460;11.810;2022-07-29T10:27:49;2.28;;;1.42;;
42134;SDS011;28312;43.460;11.810;2022-07-29T10:40:15;3.70;;;2.25;;
42134;SDS011;28312;43.460;11.810;2022-07-29T10:45:00;2.38;;;1.80;;
42134;SDS011;28312;43.460;11.810;2022-07-29T10:49:10;1.50;;;1.00;;
42134;SDS011;28312;43.460;11.810;2022-07-29T10:58:14;3.20;;;2.13;;
42134;SDS011;28312;43.460;11.810;2022-07-29T11:15:52;3.17;;;1.75;;
42134;SDS011;28312;43.460;11.810;2022-07-29T11:24:33;4.32;;;1.17;;
42134;SDS011;28312;43.460;11.810;2022-07-29T11:33:01;1.98;;;1.25;;
42134;SDS011;28312;43.460;11.810;2022-07-29T11:45:26;1.98;;;1.40;;
42134;SDS011;28312;43.460;11.810;2022-07-29T11:49:48;4.15;;;1.65;;
42134;SDS011;28312;43.460;11.810;2022-07-29T11:53:55;2.50;;;1.60;;
42134;SDS011;28312;43.460;11.810;2022-07-29T11:58:06;2.60;;;1.40;;
42134;SDS011;28312;43.460;11.810;2022-07-29T12:02:12;2.50;;;1.20;;
42134;SDS011;28312;43.460;11.810;2022-07-29T12:06:37;2.20;;;1.40;;
42134;SDS011;28312;43.460;11.810;2022-07-29T12:10:41;1.57;;;1.07;;
42134;SDS011;28312;43.460;11.810;2022-07-29T12:14:46;1.88;;;1.13;;
42134;SDS011;28312;43.460;11.810;2022-07-29T12:18:55;2.53;;;1.42;;
42134;SDS011;28312;43.460;11.810;2022-07-29T12:23:04;2.33;;;1.50;;
42134;SDS011;28312;43.460;11.810;2022-07-29T12:27:10;2.40;;;1.52;;
42134;SDS011;28312;43.460;11.810;2022-07-29T12:31:19;4.85;;;1.90;;
42134;SDS011;28312;43.460;11.810;2022-07-29T12:35:44;1.95;;;1.20;;
42134;SDS011;28312;43.460;11.810;2022-07-29T12:40:08;1.80;;;1.17;;
42134;SDS011;28312;43.460;11.810;2022-07-29T12:44:17;2.53;;;1.60;;
42134;SDS011;28312;43.460;11.810;2022-07-29T12:53:12;2.38;;;1.20;;
42134;SDS011;28312;43.460;11.810;2022-07-29T12:57:19;2.28;;;1.23;;
42134;SDS011;28312;43.460;11.810;2022-07-29T13:01:23;1.80;;;1.05;;
42134;SDS011;28312;43.460;11.810;2022-07-29T13:05:41;1.38;;;0.88;;
42134;SDS011;28312;43.460;11.810;2022-07-29T13:09:51;1.90;;;1.10;;
42134;SDS011;28312;43.460;11.810;2022-07-29T13:13:55;2.42;;;1.25;;
42134;SDS011;28312;43.460;11.810;2022-07-29T13:22:35;1.42;;;1.02;;
42134;SDS011;28312;43.460;11.810;2022-07-29T13:26:39;1.83;;;0.90;;
42134;SDS011;28312;43.460;11.810;2022-07-29T13:34:48;2.25;;;1.40;;
42134;SDS011;28312;43.460;11.810;2022-07-29T13:38:52;2.22;;;1.52;;
42134;SDS011;28312;43.460;11.810;2022-07-29T13:42:55;4.00;;;1.60;;
42134;SDS011;28312;43.460;11.810;2022-07-29T13:46:59;2.20;;;1.20;;
42134;SDS011;28312;43.460;11.810;2022-07-29T13:51:03;3.05;;;1.45;;
42134;SDS011;28312;43.460;11.810;2022-07-29T13:55:07;3.57;;;1.40;;
42134;SDS011;28312;43.460;11.810;2022-07-29T13:59:11;4.63;;;1.73;;
42134;SDS011;28312;43.460;11.810;2022-07-29T14:03:15;1.50;;;0.90;;
42134;SDS011;28312;43.460;11.810;2022-07-29T14:07:19;2.10;;;1.23;;
42134;SDS011;28312;43.460;11.810;2022-07-29T14:11:23;2.67;;;1.40;;
42134;SDS011;28312;43.460;11.810;2022-07-29T14:15:27;2.55;;;1.00;;
42134;SDS011;28312;43.460;11.810;2022-07-29T14:23:38;1.42;;;0.88;;
42134;SDS011;28312;43.460;11.810;2022-07-29T14:27:45;3.08;;;2.00;;
42134;SDS011;28312;43.460;11.810;2022-07-29T14:31:49;3.15;;;1.65;;
42134;SDS011;28312;43.460;11.810;2022-07-29T14:35:53;5.50;;;2.33;;
42134;SDS011;28312;43.460;11.810;2022-07-29T14:40:03;2.78;;;1.83;;
42134;SDS011;28312;43.460;11.810;2022-07-29T14:44:07;4.32;;;1.40;;
42134;SDS011;28312;43.460;11.810;2022-07-29T14:48:10;3.45;;;1.50;;
42134;SDS011;28312;43.460;11.810;2022-07-29T14:52:14;2.85;;;1.73;;
42134;SDS011;28312;43.460;11.810;2022-07-29T14:56:18;5.95;;;1.83;;
42134;SDS011;28312;43.460;11.810;2022-07-29T15:00:38;8.10;;;1.98;;
42134;SDS011;28312;43.460;11.810;2022-07-29T15:04:43;4.10;;;2.55;;
42134;SDS011;28312;43.460;11.810;2022-07-29T15:08:48;3.45;;;2.42;;
42134;SDS011;28312;43.460;11.810;2022-07-29T15:12:53;2.95;;;2.13;;
42134;SDS011;28312;43.460;11.810;2022-07-29T15:16:57;3.17;;;2.17;;
42134;SDS011;28312;43.460;11.810;2022-07-29T15:21:01;4.50;;;2.05;;
42134;SDS011;28312;43.460;11.810;2022-07-29T15:25:09;2.80;;;1.65;;
42134;SDS011;28312;43.460;11.810;2022-07-29T15:29:14;2.85;;;1.80;;
42134;SDS011;28312;43.460;11.810;2022-07-29T15:33:18;1.83;;;1.23;;
42134;SDS011;28312;43.460;11.810;2022-07-29T15:37:21;1.50;;;0.98;;
42134;SDS011;28312;43.460;11.810;2022-07-29T15:41:25;1.50;;;1.00;;
42134;SDS011;28312;43.460;11.810;2022-07-29T15:45:29;1.63;;;1.13;;
42134;SDS011;28312;43.460;11.810;2022-07-29T15:49:42;0.90;;;0.70;;
42134;SDS011;28312;43.460;11.810;2022-07-29T15:53:51;1.67;;;1.00;;
42134;SDS011;28312;43.460;11.810;2022-07-29T15:57:55;1.48;;;0.73;;
42134;SDS011;28312;43.460;11.810;2022-07-29T16:02:02;2.17;;;1.25;;
42134;SDS011;28312;43.460;11.810;2022-07-29T16:06:06;2.33;;;1.33;;
42134;SDS011;28312;43.460;11.810;2022-07-29T16:10:10;2.05;;;1.08;;
42134;SDS011;28312;43.460;11.810;2022-07-29T16:14:14;1.92;;;0.90;;
42134;SDS011;28312;43.460;11.810;2022-07-29T16:18:18;5.00;;;2.05;;
42134;SDS011;28312;43.460;11.810;2022-07-29T16:22:31;1.88;;;0.95;;
42134;SDS011;28312;43.460;11.810;2022-07-29T16:26:35;2.17;;;1.30;;
42134;SDS011;28312;43.460;11.810;2022-07-29T16:30:39;3.10;;;1.02;;
42134;SDS011;28312;43.460;11.810;2022-07-29T16:34:43;1.67;;;0.80;;
42134;SDS011;28312;43.460;11.810;2022-07-29T16:38:46;2.30;;;0.95;;
42134;SDS011;28312;43.460;11.810;2022-07-29T16:42:51;2.38;;;1.08;;
42134;SDS011;28312;43.460;11.810;2022-07-29T16:46:54;1.90;;;1.00;;
42134;SDS011;28312;43.460;11.810;2022-07-29T16:51:01;1.73;;;0.90;;
42134;SDS011;28312;43.460;11.810;2022-07-29T16:55:06;2.38;;;1.33;;
42134;SDS011;28312;43.460;11.810;2022-07-29T16:59:10;1.67;;;0.90;;
42134;SDS011;28312;43.460;11.810;2022-07-29T17:03:14;1.90;;;0.93;;
42134;SDS011;28312;43.460;11.810;2022-07-29T17:07:18;1.60;;;0.70;;
42134;SDS011;28312;43.460;11.810;2022-07-29T17:11:22;0.93;;;0.60;;
42134;SDS011;28312;43.460;11.810;2022-07-29T17:15:47;1.25;;;0.70;;
42134;SDS011;28312;43.460;11.810;2022-07-29T17:19:51;1.02;;;0.65;;
42134;SDS011;28312;43.460;11.810;2022-07-29T17:23:54;1.17;;;0.50;;
42134;SDS011;28312;43.460;11.810;2022-07-29T17:32:03;1.38;;;0.80;;
42134;SDS011;28312;43.460;11.810;2022-07-29T17:36:09;1.00;;;0.55;;
42134;SDS011;28312;43.460;11.810;2022-07-29T17:40:31;3.50;;;0.70;;
42134;SDS011;28312;43.460;11.810;2022-07-29T17:44:35;1.70;;;0.60;;
42134;SDS011;28312;43.460;11.810;2022-07-29T17:48:39;1.60;;;0.68;;
42134;SDS011;28312;43.460;11.810;2022-07-29T17:52:43;1.92;;;0.68;;
42134;SDS011;28312;43.460;11.810;2022-07-29T17:56:47;1.20;;;0.60;;
42134;SDS011;28312;43.460;11.810;2022-07-29T18:00:51;2.10;;;0.60;;
42134;SDS011;28312;43.460;11.810;2022-07-29T18:04:55;2.20;;;0.85;;
42134;SDS011;28312;43.460;11.810;2022-07-29T18:09:00;0.70;;;0.43;;
42134;SDS011;28312;43.460;11.810;2022-07-29T18:13:04;2.25;;;0.82;;
42134;SDS011;28312;43.460;11.810;2022-07-29T18:17:07;1.00;;;0.57;;
42134;SDS011;28312;43.460;11.810;2022-07-29T18:21:11;1.55;;;1.00;;
42134;SDS011;28312;43.460;11.810;2022-07-29T18:25:15;0.77;;;0.50;;
42134;SDS011;28312;43.460;11.810;2022-07-29T18:29:19;0.93;;;0.60;;
42134;SDS011;28312;43.460;11.810;2022-07-29T18:33:23;2.13;;;0.88;;
42134;SDS011;28312;43.460;11.810;2022-07-29T18:37:27;0.90;;;0.50;;
42134;SDS011;28312;43.460;11.810;2022-07-29T18:41:51;1.80;;;0.77;;
42134;SDS011;28312;43.460;11.810;2022-07-29T18:45:54;1.77;;;0.75;;
42134;SDS011;28312;43.460;11.810;2022-07-29T18:49:58;1.83;;;0.90;;
42134;SDS011;28312;43.460;11.810;2022-07-29T18:54:04;0.70;;;0.45;;
42134;SDS011;28312;43.460;11.810;2022-07-29T18:58:07;0.90;;;0.52;;
42134;SDS011;28312;43.460;11.810;2022-07-29T19:02:12;1.55;;;0.77;;
42134;SDS011;28312;43.460;11.810;2022-07-29T19:06:15;1.50;;;0.80;;
42134;SDS011;28312;43.460;11.810;2022-07-29T19:10:25;1.73;;;0.80;;
42134;SDS011;28312;43.460;11.810;2022-07-29T19:14:29;1.88;;;0.80;;
42134;SDS011;28312;43.460;11.810;2022-07-29T19:18:32;1.33;;;0.75;;
42134;SDS011;28312;43.460;11.810;2022-07-29T19:22:36;1.85;;;0.75;;
42134;SDS011;28312;43.460;11.810;2022-07-29T19:26:40;3.22;;;1.60;;
42134;SDS011;28312;43.460;11.810;2022-07-29T19:30:48;4.03;;;2.22;;
42134;SDS011;28312;43.460;11.810;2022-07-29T19:34:52;1.98;;;1.10;;
42134;SDS011;28312;43.460;11.810;2022-07-29T19:39:14;1.60;;;0.90;;
42134;SDS011;28312;43.460;11.810;2022-07-29T19:43:18;4.05;;;1.30;;
42134;SDS011;28312;43.460;11.810;2022-07-29T19:47:42;1.45;;;0.85;;
42134;SDS011;28312;43.460;11.810;2022-07-29T19:51:45;0.82;;;0.45;;
42134;SDS011;28312;43.460;11.810;2022-07-29T19:55:49;1.80;;;0.80;;
42134;SDS011;28312;43.460;11.810;2022-07-29T19:59:53;1.63;;;0.98;;
42134;SDS011;28312;43.460;11.810;2022-07-29T20:03:57;1.02;;;0.70;;
42134;SDS011;28312;43.460;11.810;2022-07-29T20:08:01;1.52;;;0.85;;
42134;SDS011;28312;43.460;11.810;2022-07-29T20:12:07;2.25;;;0.93;;
42134;SDS011;28312;43.460;11.810;2022-07-29T20:16:11;1.50;;;0.87;;
42134;SDS011;28312;43.460;11.810;2022-07-29T20:20:16;1.52;;;0.70;;
42134;SDS011;28312;43.460;11.810;2022-07-29T20:24:21;1.23;;;0.73;;
42134;SDS011;28312;43.460;11.810;2022-07-29T20:28:25;1.88;;;1.00;;
42134;SDS011;28312;43.460;11.810;2022-07-29T20:32:29;1.55;;;0.70;;
42134;SDS011;28312;43.460;11.810;2022-07-29T20:36:32;1.30;;;0.70;;
42134;SDS011;28312;43.460;11.810;2022-07-29T20:40:36;2.75;;;0.95;;
42134;SDS011;28312;43.460;11.810;2022-07-29T20:44:41;1.27;;;0.80;;
42134;SDS011;28312;43.460;11.810;2022-07-29T20:48:45;1.38;;;0.85;;
42134;SDS011;28312;43.460;11.810;2022-07-29T20:52:48;2.10;;;1.02;;
42134;SDS011;28312;43.460;11.810;2022-07-29T20:56:53;1.52;;;1.00;;
42134;SDS011;28312;43.460;11.810;2022-07-29T21:00:57;1.92;;;0.95;;
42134;SDS011;28312;43.460;11.810;2022-07-29T21:05:01;1.63;;;1.00;;
42134;SDS011;28312;43.460;11.810;2022-07-29T21:09:05;1.80;;;0.65;;
42134;SDS011;28312;43.460;11.810;2022-07-29T21:13:09;2.35;;;0.90;;
42134;SDS011;28312;43.460;11.810;2022-07-29T21:17:13;1.75;;;1.02;;
42134;SDS011;28312;43.460;11.810;2022-07-29T21:21:23;1.50;;;0.90;;
42134;SDS011;28312;43.460;11.810;2022-07-29T21:25:28;1.65;;;0.80;;
42134;SDS011;28312;43.460;11.810;2022-07-29T21:29:32;2.05;;;1.00;;
42134;SDS011;28312;43.460;11.810;2022-07-29T21:33:36;1.08;;;0.68;;
42134;SDS011;28312;43.460;11.810;2022-07-29T21:37:40;2.28;;;0.98;;
42134;SDS011;28312;43.460;11.810;2022-07-29T21:41:44;1.75;;;1.00;;
42134;SDS011;28312;43.460;11.810;2022-07-29T21:45:50;2.47;;;1.13;;
42134;SDS011;28312;43.460;11.810;2022-07-29T21:49:56;1.73;;;0.75;;
42134;SDS011;28312;43.460;11.810;2022-07-29T21:54:02;1.30;;;0.77;;
42134;SDS011;28312;43.460;11.810;2022-07-29T21:58:06;1.02;;;0.70;;
42134;SDS011;28312;43.460;11.810;2022-07-29T22:02:10;1.23;;;0.77;;
42134;SDS011;28312;43.460;11.810;2022-07-29T22:06:14;1.73;;;0.73;;
42134;SDS011;28312;43.460;11.810;2022-07-29T22:10:20;1.55;;;0.82;;
42134;SDS011;28312;43.460;11.810;2022-07-29T22:14:29;3.03;;;1.10;;
42134;SDS011;28312;43.460;11.810;2022-07-29T22:18:34;2.03;;;0.88;;
42134;SDS011;28312;43.460;11.810;2022-07-29T22:22:40;2.10;;;0.95;;
42134;SDS011;28312;43.460;11.810;2022-07-29T22:26:45;1.23;;;0.73;;
42134;SDS011;28312;43.460;11.810;2022-07-29T22:30:51;1.40;;;0.82;;
42134;SDS011;28312;43.460;11.810;2022-07-29T22:34:57;2.25;;;1.17;;
42134;SDS011;28312;43.460;11.810;2022-07-29T22:39:00;1.17;;;0.63;;
42134;SDS011;28312;43.460;11.810;2022-07-29T22:43:04;2.00;;;1.10;;
42134;SDS011;28312;43.460;11.810;2022-07-29T22:47:09;1.55;;;1.00;;
42134;SDS011;28312;43.460;11.810;2022-07-29T22:51:13;2.28;;;1.08;;
42134;SDS011;28312;43.460;11.810;2022-07-29T22:55:17;2.22;;;1.45;;
42134;SDS011;28312;43.460;11.810;2022-07-29T22:59:21;2.40;;;1.08;;
42134;SDS011;28312;43.460;11.810;2022-07-29T23:03:25;1.52;;;1.02;;
42134;SDS011;28312;43.460;11.810;2022-07-29T23:07:28;5.00;;;2.17;;
42134;SDS011;28312;43.460;11.810;2022-07-29T23:11:33;1.83;;;1.17;;
42134;SDS011;28312;43.460;11.810;2022-07-29T23:15:37;2.08;;;1.30;;
42134;SDS011;28312;43.460;11.810;2022-07-29T23:19:41;2.50;;;1.70;;
42134;SDS011;28312;43.460;11.810;2022-07-29T23:23:46;4.13;;;2.10;;
42134;SDS011;28312;43.460;11.810;2022-07-29T23:27:50;2.33;;;1.35;;
42134;SDS011;28312;43.460;11.810;2022-07-29T23:31:54;3.10;;;1.60;;
42134;SDS011;28312;43.460;11.810;2022-07-29T23:35:58;3.38;;;1.55;;
42134;SDS011;28312;43.460;11.810;2022-07-29T23:40:02;3.83;;;2.05;;
42134;SDS011;28312;43.460;11.810;2022-07-29T23:44:13;3.60;;;1.83;;
42134;SDS011;28312;43.460;11.810;2022-07-29T23:48:18;1.75;;;1.13;;
42134;SDS011;28312;43.460;11.810;2022-07-29T23:52:22;3.00;;;1.25;;
42134;SDS011;28312;43.460;11.810;2022-07-29T23:56:26;2.90;;;1.58;;
